Time;durP1;ratioP1;P1;durP2;ratioP2;P2;SDS_P1;SDS_P2;PMS_P1;PMS_P2;Temp;Humidity;BMP_temperature;BMP_pressure;BME280_temperature;BME280_humidity;BME280_pressure;Samples;Min_cycle;Max_cycle;Signal;HPM_P1;HPM_P2
2023/04/24 00:00:50;;;;;;;0.40;0.40;;;9.00;99.90;;;;;;5005969;28;20440;-74
2023/04/24 00:03:20;;;;;;;0.20;0.20;;;9.00;99.90;;;;;;5009495;28;20802;-74
2023/04/24 00:05:47;;;;;;;0.28;0.13;;;9.10;99.90;;;;;;4992374;28;20907;-74
2023/04/24 00:08:20;;;;;;;0.40;0.40;;;9.20;99.90;;;;;;4988773;28;20943;-74
2023/04/24 00:10:47;;;;;;;0.50;0.50;;;9.30;99.90;;;;;;5006137;28;20438;-74
2023/04/24 00:13:14;;;;;;;0.20;0.20;;;9.40;99.90;;;;;;5009464;28;20427;-74
2023/04/24 00:15:40;;;;;;;0.20;0.20;;;9.40;99.90;;;;;;5004335;28;20633;-74
2023/04/24 00:18:07;;;;;;;0.10;0.10;;;9.40;99.90;;;;;;5008389;28;20436;-74
2023/04/24 00:20:58;;;;;;;0.30;0.30;;;9.40;99.90;;;;;;4994919;28;20414;-74
2023/04/24 00:23:25;;;;;;;0.20;0.20;;;9.40;99.90;;;;;;5007322;28;20938;-74
2023/04/24 00:26:17;;;;;;;0.20;0.20;;;9.40;99.90;;;;;;5008349;28;20419;-74
2023/04/24 00:28:43;;;;;;;0.20;0.20;;;9.50;99.90;;;;;;5007744;28;20443;-74
2023/04/24 00:31:16;;;;;;;0.10;0.10;;;9.60;99.90;;;;;;4993961;28;20587;-75
2023/04/24 00:33:42;;;;;;;0.17;0.17;;;9.60;99.90;;;;;;4991181;28;20739;-74
2023/04/24 00:36:13;;;;;;;0.30;0.30;;;9.60;99.90;;;;;;5004295;28;20451;-74
2023/04/24 00:38:40;;;;;;;0.30;0.30;;;9.60;99.90;;;;;;5003674;28;20459;-73
2023/04/24 00:41:10;;;;;;;0.20;0.20;;;9.50;99.90;;;;;;4994862;28;20440;-73
2023/04/24 00:43:37;;;;;;;0.30;0.30;;;9.40;1.00;;;;;;5003444;28;20437;-74
2023/04/24 00:46:03;;;;;;;0.70;0.30;;;9.30;1.00;;;;;;5003859;28;20628;-74
2023/04/24 00:48:33;;;;;;;0.20;0.20;;;9.30;1.00;;;;;;5009104;28;20443;-74
2023/04/24 00:51:00;;;;;;;0.20;0.20;;;9.20;1.00;;;;;;5005379;28;20446;-75
2023/04/24 00:53:27;;;;;;;0.30;0.30;;;9.10;1.00;;;;;;5000071;28;20438;-75
2023/04/24 00:55:53;;;;;;;0.30;0.30;;;9.20;1.00;;;;;;5003907;28;20445;-75
2023/04/24 00:58:20;;;;;;;0.20;0.20;;;9.20;1.00;;;;;;5001419;28;20435;-75
2023/04/24 01:00:50;;;;;;;0.35;0.35;;;9.30;1.00;;;;;;4984722;28;20445;-76
2023/04/24 01:03:18;;;;;;;0.32;0.32;;;9.30;1.00;;;;;;4982652;28;20455;-75
2023/04/24 01:05:45;;;;;;;0.28;0.28;;;9.40;1.00;;;;;;5003348;28;20857;-74
2023/04/24 01:08:13;;;;;;;0.80;0.20;;;9.40;1.00;;;;;;5001664;28;20954;-74
2023/04/24 01:10:41;;;;;;;0.40;0.40;;;9.30;1.00;;;;;;5001511;28;20435;-74
2023/04/24 01:13:08;;;;;;;0.17;0.17;;;9.20;1.00;;;;;;5001606;28;20439;-75
2023/04/24 01:15:35;;;;;;;0.20;0.20;;;9.10;1.00;;;;;;5001523;28;20821;-74
2023/04/24 01:18:03;;;;;;;0.20;0.20;;;9.10;1.00;;;;;;5005442;28;20439;-74
2023/04/24 01:20:34;;;;;;;0.30;0.30;;;9.00;1.00;;;;;;5001199;28;20440;-75
2023/04/24 01:23:01;;;;;;;0.50;0.50;;;8.90;1.00;;;;;;5001979;28;20521;-74
2023/04/24 01:25:28;;;;;;;0.50;0.20;;;8.90;1.00;;;;;;4985619;28;20514;-75
2023/04/24 01:27:55;;;;;;;0.32;0.32;;;8.80;1.00;;;;;;4999553;28;20426;-75
2023/04/24 01:30:22;;;;;;;0.05;0.05;;;8.90;1.00;;;;;;4988786;28;20781;-75
2023/04/24 01:32:52;;;;;;;0.30;0.30;;;8.90;1.00;;;;;;5000764;28;20452;-73
2023/04/24 01:35:20;;;;;;;0.40;0.40;;;8.90;1.00;;;;;;5002610;28;20434;-74
2023/04/24 01:37:46;;;;;;;0.20;0.20;;;8.90;1.00;;;;;;4999841;28;20459;-74
2023/04/24 01:40:13;;;;;;;0.50;0.50;;;9.00;1.00;;;;;;4986455;28;20447;-74
2023/04/24 01:42:42;;;;;;;0.20;0.20;;;9.10;1.00;;;;;;4999678;28;20432;-74
2023/04/24 01:45:13;;;;;;;0.20;0.20;;;9.20;1.00;;;;;;4999317;28;20967;-74
2023/04/24 01:47:41;;;;;;;1.10;0.20;;;9.30;1.00;;;;;;4998659;28;20991;-74
2023/04/24 01:50:08;;;;;;;0.20;0.20;;;9.40;1.00;;;;;;5001717;28;20558;-74
2023/04/24 01:52:35;;;;;;;0.40;0.40;;;9.50;99.90;;;;;;5001191;28;21076;-74
2023/04/24 01:55:06;;;;;;;0.10;0.10;;;9.50;99.90;;;;;;5001907;28;20472;-73
2023/04/24 01:57:33;;;;;;;0.20;0.20;;;9.50;99.90;;;;;;5003166;28;21339;-73
2023/04/24 02:00:00;;;;;;;0.40;0.40;;;9.60;99.90;;;;;;4989027;28;20560;-73
2023/04/24 02:02:27;;;;;;;0.15;0.15;;;9.60;99.90;;;;;;5000218;28;20433;-73
2023/04/24 02:04:54;;;;;;;0.10;0.10;;;9.60;99.90;;;;;;5001980;28;20473;-74
2023/04/24 02:07:21;;;;;;;0.20;0.20;;;9.60;99.90;;;;;;4999492;28;20441;-74
2023/04/24 02:09:48;;;;;;;0.30;0.30;;;9.60;1.00;;;;;;5000076;28;20969;-74
2023/04/24 02:12:17;;;;;;;0.30;0.30;;;9.50;1.00;;;;;;4998209;28;20442;-75
2023/04/24 02:14:44;;;;;;;0.30;0.30;;;9.50;1.00;;;;;;5004500;28;20604;-74
2023/04/24 02:17:12;;;;;;;0.30;0.30;;;9.50;1.00;;;;;;4999528;28;20787;-74
2023/04/24 02:19:39;;;;;;;0.20;0.20;;;9.40;1.00;;;;;;5004640;28;20442;-74
2023/04/24 02:22:06;;;;;;;0.10;0.10;;;9.40;1.00;;;;;;4993031;28;20569;-74
2023/04/24 02:24:33;;;;;;;0.50;0.50;;;9.40;1.00;;;;;;5004264;28;20505;-74
2023/04/24 02:27:00;;;;;;;0.60;0.60;;;9.40;1.00;;;;;;4989747;28;20436;-74
2023/04/24 02:29:27;;;;;;;1.00;0.17;;;9.40;1.00;;;;;;5005136;28;20433;-74
2023/04/24 02:31:53;;;;;;;0.03;0.03;;;9.40;1.00;;;;;;5001358;28;20440;-74
2023/04/24 02:34:20;;;;;;;0.30;0.30;;;9.40;1.00;;;;;;5002172;28;20433;-74
2023/04/24 02:36:47;;;;;;;1.70;0.40;;;9.40;1.00;;;;;;4990019;28;20841;-74
2023/04/24 02:39:16;;;;;;;0.10;0.10;;;9.40;1.00;;;;;;5004137;28;20434;-74
2023/04/24 02:41:43;;;;;;;0.77;0.30;;;9.50;1.00;;;;;;5003937;28;20444;-74
2023/04/24 02:44:10;;;;;;;0.90;0.43;;;9.50;1.00;;;;;;5005301;28;20463;-74
2023/04/24 02:46:37;;;;;;;0.30;0.30;;;9.50;1.00;;;;;;4994598;28;20663;-74
2023/04/24 02:49:03;;;;;;;1.40;0.40;;;9.50;99.90;;;;;;4990079;28;20824;-74
2023/04/24 02:51:30;;;;;;;0.25;0.25;;;9.50;99.90;;;;;;4989190;28;21290;-74
2023/04/24 02:53:57;;;;;;;0.33;0.33;;;9.50;99.90;;;;;;5003253;28;20447;-74
2023/04/24 02:56:24;;;;;;;0.20;0.20;;;9.50;1.00;;;;;;5005809;28;20466;-74
2023/04/24 02:58:53;;;;;;;0.20;0.20;;;9.50;1.00;;;;;;5004114;28;20440;-74
2023/04/24 03:01:20;;;;;;;0.30;0.30;;;9.50;99.90;;;;;;5001744;28;20448;-74
2023/04/24 03:03:47;;;;;;;0.20;0.20;;;9.60;99.90;;;;;;5004546;28;20629;-74
2023/04/24 03:06:15;;;;;;;0.50;0.50;;;9.60;99.90;;;;;;5003412;28;20430;-74
2023/04/24 03:08:41;;;;;;;8.30;0.20;;;9.60;99.90;;;;;;4986056;28;21096;-74
2023/04/24 03:11:10;;;;;;;0.30;0.30;;;9.60;99.90;;;;;;5006936;28;20504;-74
2023/04/24 03:13:37;;;;;;;0.30;0.30;;;9.60;99.90;;;;;;4989312;28;20435;-75
2023/04/24 03:16:05;;;;;;;0.22;0.22;;;9.60;99.90;;;;;;5003292;28;20443;-73
2023/04/24 03:18:32;;;;;;;0.20;0.20;;;9.50;1.00;;;;;;5006231;28;20431;-74
2023/04/24 03:20:59;;;;;;;0.20;0.20;;;9.50;1.00;;;;;;5005818;28;20458;-74
2023/04/24 03:23:25;;;;;;;0.40;0.30;;;9.40;1.00;;;;;;5005407;28;20442;-73
2023/04/24 03:25:52;;;;;;;0.28;0.28;;;9.40;1.00;;;;;;5002223;28;20563;-74
2023/04/24 03:28:19;;;;;;;0.10;0.10;;;9.40;1.00;;;;;;5004456;28;20490;-74
2023/04/24 03:30:46;;;;;;;0.20;0.20;;;9.40;1.00;;;;;;5006263;28;20607;-74
2023/04/24 03:33:12;;;;;;;0.30;0.30;;;9.40;1.00;;;;;;4988752;28;20665;-74
2023/04/24 03:35:39;;;;;;;0.13;0.13;;;9.30;1.00;;;;;;5004670;28;20430;-74
2023/04/24 03:38:06;;;;;;;0.20;0.20;;;9.30;1.00;;;;;;4987437;28;20443;-74
2023/04/24 03:40:33;;;;;;;1.50;0.30;;;9.40;1.00;;;;;;5002084;28;20439;-74
2023/04/24 03:43:00;;;;;;;0.20;0.20;;;9.40;99.90;;;;;;4985844;28;20525;-74
2023/04/24 03:45:27;;;;;;;0.20;0.20;;;9.40;99.90;;;;;;5002800;28;20957;-74
2023/04/24 03:47:56;;;;;;;0.43;0.43;;;9.40;1.00;;;;;;5005636;28;20491;-74
2023/04/24 03:50:24;;;;;;;1.40;0.30;;;9.40;99.90;;;;;;4991767;28;20436;-75
2023/04/24 03:52:50;;;;;;;0.30;0.20;;;9.50;1.00;;;;;;5004300;28;20516;-74
2023/04/24 03:55:17;;;;;;;0.20;0.20;;;9.40;1.00;;;;;;5001771;28;20524;-75
2023/04/24 03:57:44;;;;;;;0.40;0.40;;;9.50;99.90;;;;;;5003523;28;20966;-75
2023/04/24 04:00:12;;;;;;;0.20;0.20;;;9.50;1.00;;;;;;5005187;28;20431;-74
2023/04/24 04:02:38;;;;;;;0.17;0.17;;;9.50;12.10;;;;;;5004273;28;20457;-74
2023/04/24 04:05:06;;;;;;;1.50;0.60;;;9.50;1.00;;;;;;4986589;28;20527;-74
2023/04/24 04:07:32;;;;;;;0.13;0.13;;;9.40;99.90;;;;;;4983331;28;20435;-74
2023/04/24 04:09:59;;;;;;;0.20;0.20;;;9.40;1.00;;;;;;5000495;28;20421;-74
2023/04/24 04:12:26;;;;;;;0.20;0.20;;;9.20;22.40;;;;;;5002762;28;20464;-74
2023/04/24 04:14:52;;;;;;;0.40;0.40;;;9.20;24.60;;;;;;4984163;28;20432;-74
2023/04/24 04:17:19;;;;;;;0.50;0.20;;;9.10;9.40;;;;;;5004081;28;20450;-74
2023/04/24 04:19:46;;;;;;;0.73;0.50;;;8.90;1.00;;;;;;4999141;28;20502;-74
2023/04/24 04:22:12;;;;;;;0.10;0.10;;;8.70;77.60;;;;;;5001101;28;20471;-75
2023/04/24 04:24:40;;;;;;;0.20;0.20;;;8.60;99.90;;;;;;5002817;28;20521;-75
2023/04/24 04:27:08;;;;;;;0.20;0.20;;;8.40;99.90;;;;;;5001362;28;21059;-75
2023/04/24 04:29:35;;;;;;;0.30;0.30;;;8.30;99.90;;;;;;4984908;28;20908;-75
2023/04/24 04:32:02;;;;;;;0.30;0.30;;;8.20;99.90;;;;;;5003918;28;20442;-74
2023/04/24 04:34:33;;;;;;;0.30;0.30;;;8.20;99.90;;;;;;5003413;28;20431;-74
2023/04/24 04:37:01;;;;;;;2.88;0.30;;;8.10;99.90;;;;;;4999933;28;20430;-74
2023/04/24 04:39:28;;;;;;;0.70;0.60;;;8.00;1.00;;;;;;4999726;28;20544;-74
2023/04/24 04:41:55;;;;;;;0.50;0.50;;;8.00;1.00;;;;;;4987173;28;20444;-74
2023/04/24 04:44:23;;;;;;;0.40;0.40;;;8.00;1.00;;;;;;4997716;28;20533;-74
2023/04/24 04:46:53;;;;;;;0.28;0.28;;;8.00;99.90;;;;;;4983845;28;20453;-74
2023/04/24 04:49:21;;;;;;;0.30;0.30;;;8.00;1.00;;;;;;5000932;28;21144;-73
2023/04/24 04:51:50;;;;;;;0.30;0.30;;;8.00;1.00;;;;;;5001064;28;20887;-75
2023/04/24 04:54:17;;;;;;;0.30;0.30;;;8.00;99.90;;;;;;5003550;28;20947;-73
2023/04/24 04:56:44;;;;;;;0.20;0.20;;;8.10;99.90;;;;;;4985116;28;20662;-73
2023/04/24 04:59:10;;;;;;;0.32;0.32;;;8.20;99.90;;;;;;4986434;28;20520;-75
2023/04/24 05:01:37;;;;;;;0.20;0.20;;;8.30;67.10;;;;;;4999845;28;20559;-74
2023/04/24 05:04:04;;;;;;;0.30;0.30;;;8.40;1.00;;;;;;4988839;28;20489;-74
2023/04/24 05:06:31;;;;;;;0.30;0.30;;;8.40;1.00;;;;;;4999444;28;20439;-74
2023/04/24 05:08:58;;;;;;;0.50;0.50;;;8.50;1.00;;;;;;5000207;28;20504;-74
2023/04/24 05:11:25;;;;;;;0.20;0.20;;;8.40;1.00;;;;;;4986661;28;20429;-75
2023/04/24 05:13:54;;;;;;;0.30;0.30;;;8.40;1.00;;;;;;4997632;28;21478;-74
2023/04/24 05:16:21;;;;;;;0.30;0.30;;;8.30;1.00;;;;;;5001466;28;20791;-74
2023/04/24 05:18:48;;;;;;;5.10;0.80;;;8.20;1.00;;;;;;4998311;28;20438;-74
2023/04/24 05:21:14;;;;;;;0.37;0.37;;;8.20;99.90;;;;;;5002024;28;20815;-74
2023/04/24 05:23:42;;;;;;;0.20;0.20;;;8.30;1.00;;;;;;5001986;28;20435;-74
2023/04/24 05:26:11;;;;;;;0.30;0.30;;;8.50;1.00;;;;;;4998593;28;20441;-74
2023/04/24 05:28:38;;;;;;;0.88;0.47;;;8.70;1.00;;;;;;4998292;28;20448;-74
2023/04/24 05:31:05;;;;;;;0.53;0.50;;;8.80;99.90;;;;;;4984790;28;21062;-75
2023/04/24 05:33:32;;;;;;;0.20;0.20;;;8.80;99.90;;;;;;4987513;28;20447;-76
2023/04/24 05:36:01;;;;;;;0.75;0.57;;;8.80;1.00;;;;;;5002414;28;20437;-74
2023/04/24 05:38:28;;;;;;;0.40;0.40;;;8.70;99.90;;;;;;4987166;28;20460;-74
2023/04/24 05:40:55;;;;;;;0.30;0.30;;;8.60;1.00;;;;;;5002920;28;20434;-74
2023/04/24 05:43:22;;;;;;;0.35;0.35;;;8.70;99.90;;;;;;4986776;28;20539;-74
2023/04/24 05:45:49;;;;;;;0.50;0.50;;;8.70;1.00;;;;;;4981767;28;20577;-74
2023/04/24 05:48:15;;;;;;;0.50;0.50;;;8.70;99.90;;;;;;5000739;28;20527;-74
2023/04/24 05:50:42;;;;;;;0.50;0.50;;;8.80;99.90;;;;;;4990112;28;20518;-74
2023/04/24 05:53:10;;;;;;;2.20;0.35;;;9.20;99.90;;;;;;4999734;28;20432;-74
2023/04/24 05:55:37;;;;;;;0.40;0.40;;;9.60;1.00;;;;;;4999828;28;20443;-74
2023/04/24 05:58:04;;;;;;;0.30;0.30;;;9.70;1.00;;;;;;4987476;28;20450;-74
2023/04/24 06:00:31;;;;;;;0.50;0.50;;;9.60;1.00;;;;;;5003348;28;20440;-74
2023/04/24 06:03:03;;;;;;;0.30;0.30;;;9.60;1.00;;;;;;5000569;28;20975;-73
2023/04/24 06:05:30;;;;;;;0.50;0.50;;;9.70;1.00;;;;;;5002332;28;20451;-73
2023/04/24 06:07:58;;;;;;;0.40;0.40;;;9.90;1.00;;;;;;4988482;28;20771;-74
2023/04/24 06:10:25;;;;;;;0.40;0.40;;;9.90;1.00;;;;;;5005104;28;20429;-74
2023/04/24 06:12:52;;;;;;;0.47;0.47;;;10.30;1.00;;;;;;4991104;28;20787;-74
2023/04/24 06:15:18;;;;;;;0.40;0.40;;;10.70;1.00;;;;;;5004420;28;20805;-75
2023/04/24 06:17:47;;;;;;;0.20;0.20;;;10.90;1.00;;;;;;5005866;28;20450;-74
2023/04/24 06:20:14;;;;;;;1.33;0.50;;;11.10;99.90;;;;;;4985906;28;21575;-74
2023/04/24 06:22:40;;;;;;;0.45;0.45;;;11.20;99.90;;;;;;5002729;28;20444;-73
2023/04/24 06:25:09;;;;;;;0.30;0.30;;;10.90;99.90;;;;;;5002207;28;20809;-73
2023/04/24 06:27:36;;;;;;;0.80;0.80;;;10.70;1.00;;;;;;4988114;28;20451;-73
2023/04/24 06:30:03;;;;;;;0.60;0.60;;;10.60;1.00;;;;;;5002363;28;20439;-73
2023/04/24 06:32:30;;;;;;;0.93;0.82;;;10.40;1.00;;;;;;4987197;28;20478;-73
2023/04/24 06:34:57;;;;;;;1.60;0.85;;;10.20;1.00;;;;;;4991825;28;20956;-73
2023/04/24 06:37:27;;;;;;;0.68;0.68;;;10.10;1.00;;;;;;4989515;28;20443;-73
2023/04/24 06:39:56;;;;;;;0.60;0.60;;;10.10;1.00;;;;;;5000236;28;20878;-73
2023/04/24 06:42:24;;;;;;;0.50;0.47;;;10.20;1.00;;;;;;4997402;28;20440;-75
2023/04/24 06:44:51;;;;;;;0.60;0.60;;;10.40;1.00;;;;;;4980099;28;20471;-73
2023/04/24 06:47:19;;;;;;;0.75;0.75;;;10.60;1.00;;;;;;4999388;28;20528;-73
2023/04/24 06:49:47;;;;;;;0.68;0.68;;;10.70;99.90;;;;;;5001010;28;21116;-73
2023/04/24 06:52:14;;;;;;;0.80;0.80;;;10.80;99.90;;;;;;5002318;28;20557;-74
2023/04/24 06:54:41;;;;;;;0.60;0.60;;;10.80;99.90;;;;;;4999368;28;20436;-74
2023/04/24 06:57:08;;;;;;;0.93;0.93;;;11.00;99.90;;;;;;5001552;28;20986;-74
2023/04/24 06:59:37;;;;;;;0.85;0.85;;;11.00;99.90;;;;;;5002273;28;21832;-73
2023/04/24 07:02:07;;;;;;;1.00;0.90;;;11.10;99.90;;;;;;4984609;28;20944;-74
2023/04/24 07:04:35;;;;;;;0.68;0.68;;;11.00;99.90;;;;;;5001537;28;20976;-74
2023/04/24 07:07:02;;;;;;;0.60;0.60;;;10.80;99.90;;;;;;5000963;28;20430;-74
2023/04/24 07:09:29;;;;;;;0.80;0.80;;;10.80;99.90;;;;;;5002762;28;20539;-74
2023/04/24 07:11:56;;;;;;;0.80;0.80;;;10.80;99.90;;;;;;5003669;28;20441;-74
2023/04/24 07:14:23;;;;;;;0.43;0.43;;;10.60;99.90;;;;;;4983306;28;20491;-74
2023/04/24 07:16:49;;;;;;;0.80;0.65;;;10.80;1.00;;;;;;4999918;28;20439;-74
2023/04/24 07:19:18;;;;;;;0.80;0.80;;;11.60;99.90;;;;;;5000352;28;20436;-74
2023/04/24 07:21:46;;;;;;;0.52;0.52;;;12.50;99.90;;;;;;5002360;28;20444;-74
2023/04/24 07:24:13;;;;;;;0.43;0.43;;;13.50;99.90;;;;;;4998829;28;20442;-73
2023/04/24 07:26:42;;;;;;;0.68;0.57;;;14.40;99.90;;;;;;4990651;28;20459;-74
2023/04/24 07:29:09;;;;;;;0.50;0.50;;;15.30;1.00;;;;;;5000048;28;20550;-74
2023/04/24 07:31:38;;;;;;;0.63;0.63;;;15.20;99.90;;;;;;5001896;28;20937;-74
2023/04/24 07:34:05;;;;;;;5.00;0.53;;;14.70;1.00;;;;;;5002203;28;20864;-73
2023/04/24 07:36:32;;;;;;;0.57;0.38;;;14.10;99.90;;;;;;4990800;28;20437;-74
2023/04/24 07:38:59;;;;;;;0.50;0.50;;;14.50;99.90;;;;;;5001000;28;20515;-74
2023/04/24 07:41:27;;;;;;;0.50;0.50;;;15.10;99.90;;;;;;5003998;28;20460;-73
2023/04/24 07:43:54;;;;;;;0.60;0.57;;;15.20;1.00;;;;;;4986380;28;20442;-74
2023/04/24 07:46:21;;;;;;;0.73;0.50;;;14.90;1.00;;;;;;5001252;28;20440;-73
2023/04/24 07:48:48;;;;;;;0.40;0.40;;;15.10;1.00;;;;;;5001108;28;20493;-73
2023/04/24 07:51:28;;;;;;;0.30;0.30;;;15.90;1.00;;;;;;4998977;28;20561;-74
2023/04/24 07:53:55;;;;;;;0.40;0.40;;;16.00;1.00;;;;;;5000445;28;20448;-73
2023/04/24 07:56:21;;;;;;;0.47;0.47;;;15.50;1.00;;;;;;4986003;28;20919;-73
2023/04/24 07:58:48;;;;;;;0.80;0.80;;;15.10;1.00;;;;;;5003700;28;20449;-73
2023/04/24 08:01:16;;;;;;;0.38;0.38;;;14.70;14.50;;;;;;5005562;28;20796;-72
2023/04/24 08:03:43;;;;;;;0.40;0.40;;;14.10;1.00;;;;;;4985381;28;20531;-73
2023/04/24 08:06:10;;;;;;;0.63;0.63;;;13.90;1.00;;;;;;5002502;28;20421;-73
2023/04/24 08:08:37;;;;;;;1.27;1.17;;;14.20;1.00;;;;;;4984047;28;20443;-73
2023/04/24 08:11:04;;;;;;;5.10;0.40;;;14.20;1.00;;;;;;4996799;28;20450;-73
2023/04/24 08:13:31;;;;;;;0.80;0.40;;;14.50;1.00;;;;;;4985224;28;21513;-74
2023/04/24 08:15:58;;;;;;;0.70;0.70;;;14.80;1.00;;;;;;4986146;28;20497;-73
2023/04/24 08:18:26;;;;;;;1.30;1.00;;;15.20;1.00;;;;;;5001105;28;21121;-73
2023/04/24 08:21:01;;;;;;;0.85;0.52;;;15.70;1.00;;;;;;4999462;28;20885;-74
2023/04/24 08:23:29;;;;;;;0.60;0.60;;;16.50;1.00;;;;;;4999932;28;20438;-73
2023/04/24 08:25:57;;;;;;;0.57;0.57;;;17.30;8.90;;;;;;5001857;28;20995;-73
2023/04/24 08:28:23;;;;;;;0.40;0.40;;;17.60;99.90;;;;;;4986195;28;20431;-73
2023/04/24 08:30:56;;;;;;;0.40;0.40;;;17.10;99.90;;;;;;4985617;28;20772;-73
2023/04/24 08:33:23;;;;;;;0.50;0.50;;;16.70;99.90;;;;;;5004413;28;20441;-73
2023/04/24 08:35:50;;;;;;;0.50;0.40;;;16.40;1.00;;;;;;4999567;28;20439;-73
2023/04/24 08:38:17;;;;;;;0.45;0.45;;;16.70;99.90;;;;;;4998784;28;20534;-73
2023/04/24 08:40:49;;;;;;;0.40;0.40;;;16.60;1.00;;;;;;5000019;28;20453;-74
2023/04/24 08:43:16;;;;;;;0.70;0.70;;;16.20;99.90;;;;;;4983734;28;20435;-73
2023/04/24 08:45:43;;;;;;;0.88;0.57;;;16.40;99.90;;;;;;5003670;28;20542;-73
2023/04/24 08:48:12;;;;;;;0.50;0.50;;;16.10;99.90;;;;;;5001767;28;20451;-73
2023/04/24 08:50:53;;;;;;;0.50;0.50;;;16.10;1.00;;;;;;5000653;28;20534;-73
2023/04/24 08:53:25;;;;;;;0.68;0.68;;;16.00;1.00;;;;;;5000891;28;20546;-73
2023/04/24 08:55:55;;;;;;;0.40;0.38;;;15.60;1.00;;;;;;5001932;28;20440;-73
2023/04/24 08:58:25;;;;;;;0.73;0.73;;;14.90;1.00;;;;;;4987342;28;20447;-73
2023/04/24 09:00:54;;;;;;;0.52;0.52;;;14.50;1.00;;;;;;5002333;28;21054;-73
2023/04/24 09:03:22;;;;;;;0.50;0.50;;;14.30;1.00;;;;;;4984105;28;20428;-73
2023/04/24 09:05:50;;;;;;;0.63;0.50;;;13.70;1.00;;;;;;4996978;28;20832;-73
2023/04/24 09:08:24;;;;;;;0.53;0.53;;;13.40;1.00;;;;;;4989184;28;20438;-73
2023/04/24 09:10:50;;;;;;;0.90;0.90;;;13.30;1.00;;;;;;4999563;28;20446;-73
2023/04/24 09:13:19;;;;;;;7.40;1.25;;;13.10;1.00;;;;;;4999775;28;20946;-72
2023/04/24 09:15:46;;;;;;;0.65;0.60;;;13.20;1.00;;;;;;5002553;28;20471;-73
2023/04/24 09:18:13;;;;;;;0.43;0.43;;;13.50;1.00;;;;;;5000371;28;20440;-73
2023/04/24 09:21:18;;;;;;;0.40;0.40;;;13.80;1.00;;;;;;4983053;28;20441;-73
2023/04/24 09:23:44;;;;;;;0.50;0.50;;;13.80;1.00;;;;;;4986186;28;20976;-73
2023/04/24 09:26:12;;;;;;;0.32;0.32;;;13.80;1.00;;;;;;4999342;28;20444;-74
2023/04/24 09:28:43;;;;;;;0.80;0.80;;;13.90;1.00;;;;;;4999488;28;20441;-73
2023/04/24 09:31:17;;;;;;;0.28;0.28;;;13.80;1.00;;;;;;4999621;28;20938;-73
2023/04/24 09:33:55;;;;;;;0.40;0.40;;;14.10;1.00;;;;;;5000398;28;20552;-73
2023/04/24 09:36:33;;;;;;;1.90;0.52;;;14.50;1.00;;;;;;4999850;28;20507;-73
2023/04/24 09:39:02;;;;;;;0.40;0.40;;;14.10;99.90;;;;;;4983364;28;20524;-73
2023/04/24 09:41:29;;;;;;;0.70;0.60;;;13.60;1.00;;;;;;5002164;28;20555;-74
2023/04/24 09:43:57;;;;;;;1.80;0.50;;;13.30;1.00;;;;;;5000449;28;20545;-74
2023/04/24 09:46:33;;;;;;;0.30;0.30;;;13.30;1.00;;;;;;4984108;28;20998;-73
2023/04/24 09:49:13;;;;;;;0.30;0.30;;;13.50;99.90;;;;;;5000711;28;20438;-74
2023/04/24 09:51:40;;;;;;;0.80;0.80;;;14.20;1.00;;;;;;4998199;28;21166;-75
2023/04/24 09:54:15;;;;;;;0.37;0.37;;;15.10;99.90;;;;;;4998893;28;20933;-73
2023/04/24 09:56:45;;;;;;;0.60;0.60;;;15.10;99.90;;;;;;4999799;28;20435;-74
2023/04/24 09:59:13;;;;;;;0.30;0.30;;;15.30;1.00;;;;;;5000560;28;21829;-74
2023/04/24 10:01:42;;;;;;;0.60;0.40;;;15.20;1.00;;;;;;4999141;28;20909;-73
2023/04/24 10:04:26;;;;;;;0.60;0.60;;;14.90;99.90;;;;;;4980970;28;20665;-74
2023/04/24 10:06:55;;;;;;;1.30;0.38;;;14.70;1.00;;;;;;4999409;28;20505;-74
2023/04/24 10:09:26;;;;;;;0.25;0.25;;;14.10;1.00;;;;;;5001708;28;20442;-74
2023/04/24 10:11:54;;;;;;;0.33;0.33;;;13.60;99.90;;;;;;4985207;28;20434;-74
2023/04/24 10:14:23;;;;;;;0.43;0.43;;;13.10;1.00;;;;;;5000612;28;20523;-75
2023/04/24 10:16:53;;;;;;;1.60;0.57;;;12.90;99.90;;;;;;5000231;28;20460;-74
2023/04/24 10:19:20;;;;;;;0.52;0.52;;;12.60;99.90;;;;;;5000151;28;20446;-74
2023/04/24 10:21:47;;;;;;;0.35;0.35;;;12.80;99.90;;;;;;5000395;28;20441;-75
2023/04/24 10:24:20;;;;;;;0.40;0.40;;;13.30;99.90;;;;;;4998421;28;20472;-74
2023/04/24 10:26:48;;;;;;;0.38;0.38;;;13.80;99.90;;;;;;5001028;28;20551;-74
2023/04/24 10:29:19;;;;;;;0.50;0.50;;;14.60;99.90;;;;;;4997066;28;20527;-74
2023/04/24 10:31:47;;;;;;;0.45;0.45;;;15.40;99.90;;;;;;4998566;28;20439;-74
2023/04/24 10:34:20;;;;;;;0.45;0.45;;;15.70;1.00;;;;;;4985584;28;20444;-75
2023/04/24 10:36:53;;;;;;;0.40;0.40;;;16.20;1.00;;;;;;5004425;28;20531;-75
2023/04/24 10:39:54;;;;;;;0.40;0.40;;;16.30;1.00;;;;;;4989274;28;21456;-74
2023/04/24 10:42:22;;;;;;;0.43;0.43;;;16.30;18.10;;;;;;5000738;28;20553;-74
2023/04/24 10:44:50;;;;;;;0.55;0.45;;;15.90;1.00;;;;;;5002956;28;22096;-74
2023/04/24 10:47:23;;;;;;;0.53;0.50;;;15.20;1.00;;;;;;4989589;28;20552;-74
2023/04/24 10:49:58;;;;;;;0.30;0.30;;;14.60;99.90;;;;;;4989456;28;20455;-74
2023/04/24 10:52:48;;;;;;;0.40;0.40;;;13.30;1.00;;;;;;5005162;28;20435;-74
2023/04/24 10:55:42;;;;;;;0.50;0.47;;;12.10;99.90;;;;;;5003856;28;23293;-75
2023/04/24 10:58:09;;;;;;;0.30;0.30;;;11.10;1.00;;;;;;5004490;28;20436;-75
2023/04/24 11:00:42;;;;;;;1.10;0.53;;;10.50;99.90;;;;;;5006116;28;20439;-75
2023/04/24 11:03:28;;;;;;;0.50;0.50;;;10.00;1.00;;;;;;4988710;28;20448;-76
2023/04/24 11:06:01;;;;;;;0.45;0.45;;;9.90;99.90;;;;;;4989316;28;20444;-75
2023/04/24 11:08:42;;;;;;;0.50;0.50;;;10.00;1.00;;;;;;5007642;28;20922;-76
2023/04/24 11:11:21;;;;;;;0.30;0.30;;;10.30;1.00;;;;;;5006913;28;20437;-77
2023/04/24 11:13:57;;;;;;;0.60;0.60;;;10.40;99.90;;;;;;4989315;28;20818;-75
2023/04/24 11:16:55;;;;;;;0.50;0.50;;;10.80;99.90;;;;;;4989910;28;20448;-75
2023/04/24 11:19:24;;;;;;;0.60;0.60;;;11.10;1.00;;;;;;5006933;28;20438;-75
2023/04/24 11:22:02;;;;;;;0.40;0.40;;;11.30;1.00;;;;;;4994373;28;20637;-75
2023/04/24 11:24:35;;;;;;;0.20;0.20;;;11.00;99.90;;;;;;5004899;28;20789;-75
2023/04/24 11:27:09;;;;;;;0.20;0.20;;;10.60;99.90;;;;;;4994264;28;20444;-75
2023/04/24 11:29:46;;;;;;;0.35;0.35;;;10.40;91.90;;;;;;4992521;28;20441;-75
2023/04/24 11:32:25;;;;;;;0.40;0.40;;;10.50;53.10;;;;;;4992302;28;20429;-75
2023/04/24 11:34:57;;;;;;;0.30;0.30;;;10.40;1.00;;;;;;5009035;28;20435;-75
2023/04/24 11:37:35;;;;;;;0.40;0.40;;;10.20;19.70;;;;;;5007778;28;20814;-75
2023/04/24 11:40:03;;;;;;;0.10;0.10;;;10.30;1.00;;;;;;5005925;28;20442;-76
2023/04/24 11:42:39;;;;;;;0.25;0.25;;;10.50;1.00;;;;;;4988772;28;20432;-75
2023/04/24 11:45:24;;;;;;;0.38;0.38;;;10.80;99.90;;;;;;5003548;28;20433;-76
2023/04/24 11:47:51;;;;;;;0.30;0.30;;;11.40;17.50;;;;;;5004843;28;20445;-77
2023/04/24 11:50:21;;;;;;;0.20;0.20;;;12.00;99.90;;;;;;4986992;28;20438;-76
2023/04/24 11:52:50;;;;;;;0.30;0.30;;;12.30;99.90;;;;;;5002313;28;20461;-75
2023/04/24 11:55:19;;;;;;;1.10;0.50;;;12.20;99.90;;;;;;4999066;28;20444;-75
2023/04/24 11:57:49;;;;;;;0.30;0.30;;;12.30;99.90;;;;;;5005252;28;20443;-75
2023/04/24 12:00:18;;;;;;;0.80;0.30;;;12.90;99.90;;;;;;4989582;28;20948;-75
2023/04/24 12:02:46;;;;;;;0.60;0.60;;;13.50;99.90;;;;;;5006629;28;21605;-76
2023/04/24 12:05:20;;;;;;;0.20;0.20;;;13.70;99.90;;;;;;4997766;28;20500;-75
2023/04/24 12:07:48;;;;;;;0.30;0.30;;;14.20;99.90;;;;;;5000378;28;22989;-75
2023/04/24 12:10:21;;;;;;;0.30;0.30;;;14.70;99.90;;;;;;4986407;28;20440;-74
2023/04/24 12:12:50;;;;;;;0.40;0.40;;;15.30;99.90;;;;;;4983666;28;20790;-75
2023/04/24 12:15:19;;;;;;;0.30;0.30;;;15.70;99.90;;;;;;4983692;28;20806;-74
2023/04/24 12:17:53;;;;;;;0.40;0.40;;;15.60;99.90;;;;;;5003322;28;20438;-75
2023/04/24 12:20:31;;;;;;;0.52;0.52;;;15.90;99.90;;;;;;5001028;28;20435;-75
2023/04/24 12:23:01;;;;;;;0.40;0.40;;;15.60;99.90;;;;;;5006010;28;20922;-75
2023/04/24 12:25:32;;;;;;;0.47;0.47;;;14.90;99.90;;;;;;5001991;28;20512;-75
2023/04/24 12:28:05;;;;;;;0.65;0.55;;;14.40;99.90;;;;;;5001029;28;20989;-74
2023/04/24 12:30:44;;;;;;;0.70;0.70;;;13.80;99.90;;;;;;5005465;28;20430;-75
2023/04/24 12:33:21;;;;;;;1.45;0.50;;;13.30;99.90;;;;;;4989671;28;20577;-74
2023/04/24 12:35:54;;;;;;;0.52;0.52;;;13.00;99.90;;;;;;4998490;28;20467;-74
2023/04/24 12:38:26;;;;;;;0.50;0.50;;;12.80;99.90;;;;;;5001861;28;20438;-75
2023/04/24 12:41:08;;;;;;;0.35;0.35;;;12.30;99.90;;;;;;4984978;28;20436;-74
2023/04/24 12:43:35;;;;;;;0.52;0.52;;;12.20;99.90;;;;;;4987734;28;20467;-75
2023/04/24 12:46:03;;;;;;;1.23;0.52;;;12.30;99.90;;;;;;5000695;28;21209;-75
2023/04/24 12:48:34;;;;;;;0.50;0.50;;;12.60;99.90;;;;;;5002287;28;20439;-74
2023/04/24 12:51:01;;;;;;;0.52;0.52;;;13.20;99.90;;;;;;5003534;28;20542;-75
2023/04/24 12:53:31;;;;;;;1.00;0.50;;;14.00;99.90;;;;;;4986202;28;20426;-76
2023/04/24 12:55:58;;;;;;;1.00;0.40;;;14.80;99.90;;;;;;4982344;28;20439;-75
2023/04/24 12:58:25;;;;;;;0.55;0.55;;;15.60;99.90;;;;;;4984565;28;20487;-73
2023/04/24 13:00:51;;;;;;;0.50;0.50;;;16.00;99.90;;;;;;5000861;28;20429;-74
2023/04/24 13:03:24;;;;;;;0.57;0.57;;;16.00;99.90;;;;;;4997361;28;20476;-74
2023/04/24 13:05:52;;;;;;;5.80;0.40;;;15.70;99.90;;;;;;4997477;28;20492;-75
2023/04/24 13:08:19;;;;;;;0.67;0.67;;;15.40;99.90;;;;;;4985085;28;20451;-74